KOS weather

Sihanoukville International Airport
Sihanukville, Xrong Preah Sihanouk, Cambodia

Public forecast

Using degrees Celsius for public forecast. Weather courtesy of forecast.io.

METAR (pilot weather report)

Closest report is Phu Quoc International Airport, 32.4 nm (60.0 km) SE. Retrieved 2019/04/20 14:30 UTC (0 seconds ago):

VVPQ 201430Z 22005KT 9999 FEW017 30/25 Q1006 NOSIG

TAF (pilot weather forecast)

Retrieved 2019/04/20 12:00 UTC (2 hours ago):

TAF VDSV 201100Z 2012/2106 22008KT 9999 SCT017